sensor_id;sensor_type;location;lat;lon;timestamp;pressure;altitude;pressure_sealevel;temperature;humidity
68107;BME280;54892;47.488;19.026;2024-01-11T00:03:13;101348.09;;;-3.54;82.00
68107;BME280;54892;47.488;19.026;2024-01-11T00:06:40;101350.41;;;-3.50;81.98
68107;BME280;54892;47.488;19.026;2024-01-11T00:10:04;101349.41;;;-3.59;82.21
68107;BME280;54892;47.488;19.026;2024-01-11T00:13:27;101342.13;;;-3.54;81.86
68107;BME280;54892;47.488;19.026;2024-01-11T00:16:51;101342.37;;;-3.57;82.03
68107;BME280;54892;47.488;19.026;2024-01-11T00:20:15;101336.06;;;-3.64;82.21
68107;BME280;54892;47.488;19.026;2024-01-11T00:23:38;101346.53;;;-3.66;81.94
68107;BME280;54892;47.488;19.026;2024-01-11T00:27:01;101339.94;;;-3.80;82.54
68107;BME280;54892;47.488;19.026;2024-01-11T00:30:25;101331.87;;;-3.87;83.63
68107;BME280;54892;47.488;19.026;2024-01-11T00:33:49;101334.78;;;-3.80;83.24
68107;BME280;54892;47.488;19.026;2024-01-11T00:37:12;101327.34;;;-3.73;83.06
68107;BME280;54892;47.488;19.026;2024-01-11T00:40:35;101335.84;;;-3.83;83.63
68107;BME280;54892;47.488;19.026;2024-01-11T00:43:58;101326.22;;;-3.80;83.28
68107;BME280;54892;47.488;19.026;2024-01-11T00:47:21;101327.16;;;-3.82;83.45
68107;BME280;54892;47.488;19.026;2024-01-11T00:50:46;101323.50;;;-3.79;83.39
68107;BME280;54892;47.488;19.026;2024-01-11T00:54:09;101324.41;;;-3.90;83.66
68107;BME280;54892;47.488;19.026;2024-01-11T00:57:32;101311.53;;;-3.90;83.67
68107;BME280;54892;47.488;19.026;2024-01-11T01:00:55;101312.50;;;-4.02;84.31
68107;BME280;54892;47.488;19.026;2024-01-11T01:04:18;101315.59;;;-3.87;83.94
68107;BME280;54892;47.488;19.026;2024-01-11T01:07:42;101305.72;;;-4.03;84.19
68107;BME280;54892;47.488;19.026;2024-01-11T01:11:07;101295.78;;;-4.08;84.67
68107;BME280;54892;47.488;19.026;2024-01-11T01:14:30;101293.28;;;-3.98;84.57
68107;BME280;54892;47.488;19.026;2024-01-11T01:17:53;101296.62;;;-4.07;84.61
68107;BME280;54892;47.488;19.026;2024-01-11T01:21:17;101292.16;;;-4.05;84.91
68107;BME280;54892;47.488;19.026;2024-01-11T01:24:41;101289.59;;;-4.05;84.65
68107;BME280;54892;47.488;19.026;2024-01-11T01:28:05;101287.66;;;-4.03;84.46
68107;BME280;54892;47.488;19.026;2024-01-11T01:31:28;101280.22;;;-4.06;84.37
68107;BME280;54892;47.488;19.026;2024-01-11T01:34:51;101274.84;;;-4.15;84.79
68107;BME280;54892;47.488;19.026;2024-01-11T01:38:14;101269.12;;;-4.18;85.17
68107;BME280;54892;47.488;19.026;2024-01-11T01:41:40;101272.97;;;-4.13;85.04
68107;BME280;54892;47.488;19.026;2024-01-11T01:45:04;101269.50;;;-4.02;84.54
68107;BME280;54892;47.488;19.026;2024-01-11T01:48:27;101267.47;;;-3.98;84.14
68107;BME280;54892;47.488;19.026;2024-01-11T01:51:52;101256.47;;;-4.00;84.07
68107;BME280;54892;47.488;19.026;2024-01-11T01:55:16;101249.19;;;-3.95;84.11
68107;BME280;54892;47.488;19.026;2024-01-11T01:58:42;101248.66;;;-3.89;84.00
68107;BME280;54892;47.488;19.026;2024-01-11T02:02:06;101247.28;;;-3.93;83.99
68107;BME280;54892;47.488;19.026;2024-01-11T02:05:30;101249.50;;;-4.09;84.34
68107;BME280;54892;47.488;19.026;2024-01-11T02:08:54;101237.94;;;-4.15;84.67
68107;BME280;54892;47.488;19.026;2024-01-11T02:12:20;101234.03;;;-4.09;84.42
68107;BME280;54892;47.488;19.026;2024-01-11T02:15:45;101235.94;;;-4.11;84.52
68107;BME280;54892;47.488;19.026;2024-01-11T02:19:11;101224.13;;;-4.04;83.38
68107;BME280;54892;47.488;19.026;2024-01-11T02:22:36;101222.19;;;-4.22;83.71
68107;BME280;54892;47.488;19.026;2024-01-11T02:26:02;101219.81;;;-4.04;83.72
68107;BME280;54892;47.488;19.026;2024-01-11T02:29:26;101219.03;;;-3.94;83.23
68107;BME280;54892;47.488;19.026;2024-01-11T02:32:50;101211.00;;;-4.01;82.97
68107;BME280;54892;47.488;19.026;2024-01-11T02:36:13;101203.25;;;-4.01;83.27
68107;BME280;54892;47.488;19.026;2024-01-11T02:39:37;101205.69;;;-4.09;83.63
68107;BME280;54892;47.488;19.026;2024-01-11T02:43:08;101198.63;;;-4.07;83.45
68107;BME280;54892;47.488;19.026;2024-01-11T02:46:32;101188.22;;;-4.27;83.74
68107;BME280;54892;47.488;19.026;2024-01-11T02:49:55;101188.38;;;-4.29;84.25
68107;BME280;54892;47.488;19.026;2024-01-11T02:53:18;101184.34;;;-4.43;84.06
68107;BME280;54892;47.488;19.026;2024-01-11T02:56:42;101180.03;;;-4.32;84.24
68107;BME280;54892;47.488;19.026;2024-01-11T03:00:07;101179.78;;;-4.29;83.94
68107;BME280;54892;47.488;19.026;2024-01-11T03:03:30;101165.22;;;-4.40;84.21
68107;BME280;54892;47.488;19.026;2024-01-11T03:06:53;101176.41;;;-4.51;84.71
68107;BME280;54892;47.488;19.026;2024-01-11T03:10:16;101170.59;;;-4.53;84.98
68107;BME280;54892;47.488;19.026;2024-01-11T03:13:39;101163.16;;;-4.46;85.41
68107;BME280;54892;47.488;19.026;2024-01-11T03:17:05;101166.09;;;-4.51;85.62
68107;BME280;54892;47.488;19.026;2024-01-11T03:20:28;101162.59;;;-4.50;85.02
68107;BME280;54892;47.488;19.026;2024-01-11T03:23:51;101155.78;;;-4.51;84.81
68107;BME280;54892;47.488;19.026;2024-01-11T03:27:14;101143.66;;;-4.39;84.18
68107;BME280;54892;47.488;19.026;2024-01-11T03:30:37;101143.59;;;-4.49;84.55
68107;BME280;54892;47.488;19.026;2024-01-11T03:34:02;101142.59;;;-4.36;83.85
68107;BME280;54892;47.488;19.026;2024-01-11T03:37:25;101132.19;;;-4.56;83.94
68107;BME280;54892;47.488;19.026;2024-01-11T03:40:48;101129.16;;;-4.61;84.34
68107;BME280;54892;47.488;19.026;2024-01-11T03:44:11;101123.16;;;-4.71;84.62
68107;BME280;54892;47.488;19.026;2024-01-11T03:47:34;101116.53;;;-4.64;85.08
68107;BME280;54892;47.488;19.026;2024-01-11T03:50:59;101117.75;;;-4.90;85.92
68107;BME280;54892;47.488;19.026;2024-01-11T03:54:22;101117.44;;;-4.75;85.69
68107;BME280;54892;47.488;19.026;2024-01-11T03:57:45;101111.53;;;-4.66;85.44
68107;BME280;54892;47.488;19.026;2024-01-11T04:01:08;101110.38;;;-4.73;85.49
68107;BME280;54892;47.488;19.026;2024-01-11T04:04:32;101110.00;;;-4.90;85.84
68107;BME280;54892;47.488;19.026;2024-01-11T04:07:56;101112.16;;;-4.95;86.53
68107;BME280;54892;47.488;19.026;2024-01-11T04:11:19;101103.62;;;-4.95;86.19
68107;BME280;54892;47.488;19.026;2024-01-11T04:14:43;101092.19;;;-4.81;86.13
68107;BME280;54892;47.488;19.026;2024-01-11T04:18:06;101108.56;;;-4.82;85.82
68107;BME280;54892;47.488;19.026;2024-01-11T04:21:29;101115.53;;;-4.94;85.83
68107;BME280;54892;47.488;19.026;2024-01-11T04:24:53;101111.91;;;-4.92;86.19
68107;BME280;54892;47.488;19.026;2024-01-11T04:28:16;101111.53;;;-4.87;86.23
68107;BME280;54892;47.488;19.026;2024-01-11T04:31:39;101115.50;;;-4.83;86.05
68107;BME280;54892;47.488;19.026;2024-01-11T04:35:03;101114.53;;;-4.82;86.03
68107;BME280;54892;47.488;19.026;2024-01-11T04:38:26;101118.19;;;-4.84;85.96
68107;BME280;54892;47.488;19.026;2024-01-11T04:41:51;101120.91;;;-4.86;86.00
68107;BME280;54892;47.488;19.026;2024-01-11T04:45:14;101108.44;;;-4.81;85.81
68107;BME280;54892;47.488;19.026;2024-01-11T04:48:37;101114.34;;;-4.90;85.87
68107;BME280;54892;47.488;19.026;2024-01-11T04:52:00;101117.88;;;-4.91;86.06
68107;BME280;54892;47.488;19.026;2024-01-11T04:55:24;101113.03;;;-4.84;86.10
68107;BME280;54892;47.488;19.026;2024-01-11T04:58:48;101103.19;;;-4.79;85.76
68107;BME280;54892;47.488;19.026;2024-01-11T05:02:11;101111.06;;;-4.71;85.46
68107;BME280;54892;47.488;19.026;2024-01-11T05:05:34;101107.69;;;-4.71;85.54
68107;BME280;54892;47.488;19.026;2024-01-11T05:08:58;101103.66;;;-4.64;84.88
68107;BME280;54892;47.488;19.026;2024-01-11T05:12:21;101105.44;;;-4.65;84.29
68107;BME280;54892;47.488;19.026;2024-01-11T05:15:45;101109.50;;;-4.62;84.24
68107;BME280;54892;47.488;19.026;2024-01-11T05:19:08;101110.41;;;-4.94;85.21
68107;BME280;54892;47.488;19.026;2024-01-11T05:22:31;101105.94;;;-5.13;86.47
68107;BME280;54892;47.488;19.026;2024-01-11T05:25:55;101102.66;;;-4.94;86.30
68107;BME280;54892;47.488;19.026;2024-01-11T05:29:18;101105.94;;;-4.92;85.99
68107;BME280;54892;47.488;19.026;2024-01-11T05:32:42;101104.19;;;-4.92;85.80
68107;BME280;54892;47.488;19.026;2024-01-11T05:36:06;101109.69;;;-4.96;85.63
68107;BME280;54892;47.488;19.026;2024-01-11T05:39:29;101110.09;;;-5.01;85.68
68107;BME280;54892;47.488;19.026;2024-01-11T05:42:52;101106.19;;;-4.95;85.39
68107;BME280;54892;47.488;19.026;2024-01-11T05:46:15;101116.47;;;-5.16;86.11
68107;BME280;54892;47.488;19.026;2024-01-11T05:49:40;101108.19;;;-5.20;86.60
68107;BME280;54892;47.488;19.026;2024-01-11T05:53:03;101111.16;;;-5.03;85.93
68107;BME280;54892;47.488;19.026;2024-01-11T05:56:26;101104.63;;;-5.08;86.40
68107;BME280;54892;47.488;19.026;2024-01-11T05:59:49;101107.19;;;-5.08;86.85
68107;BME280;54892;47.488;19.026;2024-01-11T06:03:12;101111.41;;;-5.07;86.75
68107;BME280;54892;47.488;19.026;2024-01-11T06:06:37;101113.97;;;-5.07;87.09
68107;BME280;54892;47.488;19.026;2024-01-11T06:10:00;101105.06;;;-5.02;86.98
68107;BME280;54892;47.488;19.026;2024-01-11T06:13:24;101107.50;;;-5.01;86.95
68107;BME280;54892;47.488;19.026;2024-01-11T06:16:48;101104.16;;;-5.13;86.87
68107;BME280;54892;47.488;19.026;2024-01-11T06:20:11;101097.13;;;-5.11;87.26
68107;BME280;54892;47.488;19.026;2024-01-11T06:23:35;101090.34;;;-5.12;87.34
68107;BME280;54892;47.488;19.026;2024-01-11T06:26:59;101088.41;;;-5.20;87.39
68107;BME280;54892;47.488;19.026;2024-01-11T06:30:22;101093.38;;;-5.07;87.45
68107;BME280;54892;47.488;19.026;2024-01-11T06:33:45;101085.34;;;-4.92;86.96
68107;BME280;54892;47.488;19.026;2024-01-11T06:37:09;101093.38;;;-5.07;87.44
68107;BME280;54892;47.488;19.026;2024-01-11T06:40:34;101093.69;;;-5.00;87.33
68107;BME280;54892;47.488;19.026;2024-01-11T06:43:57;101091.19;;;-4.90;86.45
68107;BME280;54892;47.488;19.026;2024-01-11T06:47:22;101092.06;;;-5.01;86.53
68107;BME280;54892;47.488;19.026;2024-01-11T06:50:45;101082.97;;;-4.84;86.17
68107;BME280;54892;47.488;19.026;2024-01-11T06:54:08;101082.31;;;-4.97;86.27
68107;BME280;54892;47.488;19.026;2024-01-11T06:57:33;101087.84;;;-4.81;86.47
68107;BME280;54892;47.488;19.026;2024-01-11T07:00:56;101074.53;;;-4.86;86.41
68107;BME280;54892;47.488;19.026;2024-01-11T07:04:20;101084.00;;;-4.86;86.43
68107;BME280;54892;47.488;19.026;2024-01-11T07:07:43;101087.72;;;-4.79;86.47
68107;BME280;54892;47.488;19.026;2024-01-11T07:11:06;101079.88;;;-4.78;86.54
68107;BME280;54892;47.488;19.026;2024-01-11T07:14:31;101081.69;;;-4.68;86.16
68107;BME280;54892;47.488;19.026;2024-01-11T07:17:54;101084.81;;;-4.65;86.16
68107;BME280;54892;47.488;19.026;2024-01-11T07:21:21;101077.94;;;-4.54;85.44
68107;BME280;54892;47.488;19.026;2024-01-11T07:24:44;101076.56;;;-4.59;85.57
68107;BME280;54892;47.488;19.026;2024-01-11T07:28:08;101074.50;;;-4.65;86.50
68107;BME280;54892;47.488;19.026;2024-01-11T07:31:32;101064.16;;;-4.44;85.62
68107;BME280;54892;47.488;19.026;2024-01-11T07:34:55;101072.31;;;-4.38;85.77
68107;BME280;54892;47.488;19.026;2024-01-11T07:38:18;101087.41;;;-4.34;84.96
68107;BME280;54892;47.488;19.026;2024-01-11T07:41:41;101079.53;;;-4.32;85.47
68107;BME280;54892;47.488;19.026;2024-01-11T07:45:06;101066.94;;;-4.25;85.11
68107;BME280;54892;47.488;19.026;2024-01-11T07:48:31;101072.44;;;-3.99;83.75
68107;BME280;54892;47.488;19.026;2024-01-11T07:51:55;101063.09;;;-3.90;84.01
68107;BME280;54892;47.488;19.026;2024-01-11T07:55:18;101070.81;;;-3.90;83.50
68107;BME280;54892;47.488;19.026;2024-01-11T07:58:45;101065.69;;;-3.71;83.11
68107;BME280;54892;47.488;19.026;2024-01-11T08:02:10;101068.41;;;-3.62;82.76
68107;BME280;54892;47.488;19.026;2024-01-11T08:05:34;101054.03;;;-3.45;82.20
68107;BME280;54892;47.488;19.026;2024-01-11T08:08:58;101055.34;;;-3.41;82.25
68107;BME280;54892;47.488;19.026;2024-01-11T08:12:21;101055.25;;;-3.30;82.36
68107;BME280;54892;47.488;19.026;2024-01-11T08:15:44;101042.84;;;-3.16;82.36
68107;BME280;54892;47.488;19.026;2024-01-11T08:19:07;101037.91;;;-3.00;82.10
68107;BME280;54892;47.488;19.026;2024-01-11T08:22:33;101036.56;;;-3.04;82.19
68107;BME280;54892;47.488;19.026;2024-01-11T08:25:57;101029.31;;;-2.91;81.31
68107;BME280;54892;47.488;19.026;2024-01-11T08:29:21;101025.72;;;-2.70;80.53
68107;BME280;54892;47.488;19.026;2024-01-11T08:32:44;101021.78;;;-2.74;80.44
68107;BME280;54892;47.488;19.026;2024-01-11T08:36:07;101028.72;;;-2.65;80.43
68107;BME280;54892;47.488;19.026;2024-01-11T08:39:32;101025.00;;;-2.62;79.77
68107;BME280;54892;47.488;19.026;2024-01-11T08:42:55;101022.94;;;-2.31;78.34
68107;BME280;54892;47.488;19.026;2024-01-11T08:46:23;101027.88;;;-2.37;78.81
68107;BME280;54892;47.488;19.026;2024-01-11T08:49:47;101018.84;;;-2.23;78.23
68107;BME280;54892;47.488;19.026;2024-01-11T08:53:10;101001.91;;;-2.18;78.00
68107;BME280;54892;47.488;19.026;2024-01-11T08:56:35;101013.78;;;-1.97;77.44
68107;BME280;54892;47.488;19.026;2024-01-11T08:59:58;101016.28;;;-1.87;76.72
68107;BME280;54892;47.488;19.026;2024-01-11T09:03:21;101021.25;;;-1.76;76.34
68107;BME280;54892;47.488;19.026;2024-01-11T09:06:44;101019.81;;;-1.52;73.67
68107;BME280;54892;47.488;19.026;2024-01-11T09:10:08;101026.53;;;-1.41;73.82
68107;BME280;54892;47.488;19.026;2024-01-11T09:13:34;101014.72;;;-1.44;74.30
68107;BME280;54892;47.488;19.026;2024-01-11T09:16:57;101014.81;;;-1.27;74.69
68107;BME280;54892;47.488;19.026;2024-01-11T09:20:20;101004.81;;;-1.22;74.80
68107;BME280;54892;47.488;19.026;2024-01-11T09:23:44;100992.78;;;-1.05;73.27
68107;BME280;54892;47.488;19.026;2024-01-11T09:27:07;101002.31;;;-1.05;73.03
68107;BME280;54892;47.488;19.026;2024-01-11T09:30:31;101000.84;;;-1.08;73.53
68107;BME280;54892;47.488;19.026;2024-01-11T09:33:55;100986.97;;;-0.99;72.87
68107;BME280;54892;47.488;19.026;2024-01-11T09:37:19;100974.06;;;-0.90;72.47
68107;BME280;54892;47.488;19.026;2024-01-11T09:40:42;100955.69;;;-0.71;70.26
68107;BME280;54892;47.488;19.026;2024-01-11T09:44:05;100949.06;;;-0.57;68.38
68107;BME280;54892;47.488;19.026;2024-01-11T09:47:30;100938.22;;;-0.52;67.74
68107;BME280;54892;47.488;19.026;2024-01-11T09:50:55;100921.06;;;-0.45;67.22
68107;BME280;54892;47.488;19.026;2024-01-11T09:54:20;100909.44;;;-0.24;66.48
68107;BME280;54892;47.488;19.026;2024-01-11T09:57:45;100914.94;;;-0.19;65.80
68107;BME280;54892;47.488;19.026;2024-01-11T10:01:09;100907.97;;;-0.02;64.33
68107;BME280;54892;47.488;19.026;2024-01-11T10:04:35;100900.19;;;-0.02;63.02
68107;BME280;54892;47.488;19.026;2024-01-11T10:07:59;100897.87;;;0.20;61.82
68107;BME280;54892;47.488;19.026;2024-01-11T10:11:22;100895.16;;;0.05;62.06
68107;BME280;54892;47.488;19.026;2024-01-11T10:14:46;100890.75;;;0.05;61.56
68107;BME280;54892;47.488;19.026;2024-01-11T10:18:09;100886.38;;;-0.03;62.18
68107;BME280;54892;47.488;19.026;2024-01-11T10:21:37;100872.78;;;0.04;62.66
68107;BME280;54892;47.488;19.026;2024-01-11T10:25:08;100865.59;;;0.14;62.25
68107;BME280;54892;47.488;19.026;2024-01-11T10:28:32;100862.66;;;0.25;60.90
68107;BME280;54892;47.488;19.026;2024-01-11T10:31:59;100862.66;;;0.34;58.03
68107;BME280;54892;47.488;19.026;2024-01-11T10:35:22;100857.28;;;0.43;54.99
68107;BME280;54892;47.488;19.026;2024-01-11T10:38:48;100854.78;;;0.58;52.52
68107;BME280;54892;47.488;19.026;2024-01-11T10:42:13;100852.34;;;0.65;52.66
68107;BME280;54892;47.488;19.026;2024-01-11T10:45:37;100859.94;;;0.75;52.01
68107;BME280;54892;47.488;19.026;2024-01-11T10:49:02;100845.16;;;0.75;51.57
68107;BME280;54892;47.488;19.026;2024-01-11T10:52:28;100841.41;;;0.78;51.11
68107;BME280;54892;47.488;19.026;2024-01-11T10:55:57;100841.38;;;0.86;51.30
68107;BME280;54892;47.488;19.026;2024-01-11T10:59:22;100834.84;;;0.90;51.69
68107;BME280;54892;47.488;19.026;2024-01-11T11:02:46;100823.44;;;1.00;51.52
68107;BME280;54892;47.488;19.026;2024-01-11T11:06:11;100810.09;;;1.03;52.38
68107;BME280;54892;47.488;19.026;2024-01-11T11:09:35;100799.66;;;1.11;51.35
68107;BME280;54892;47.488;19.026;2024-01-11T11:12:59;100798.66;;;1.12;51.14
68107;BME280;54892;47.488;19.026;2024-01-11T11:16:23;100795.53;;;1.17;51.62
68107;BME280;54892;47.488;19.026;2024-01-11T11:19:46;100782.84;;;1.22;51.88
68107;BME280;54892;47.488;19.026;2024-01-11T11:23:10;100788.84;;;1.23;52.53
68107;BME280;54892;47.488;19.026;2024-01-11T11:26:34;100797.69;;;1.36;52.31
68107;BME280;54892;47.488;19.026;2024-01-11T11:29:59;100799.81;;;1.33;52.96
68107;BME280;54892;47.488;19.026;2024-01-11T11:33:23;100792.19;;;1.55;50.34
68107;BME280;54892;47.488;19.026;2024-01-11T11:36:47;100783.09;;;1.50;50.20
68107;BME280;54892;47.488;19.026;2024-01-11T11:40:11;100769.09;;;1.36;50.54
68107;BME280;54892;47.488;19.026;2024-01-11T11:43:34;100769.25;;;1.35;50.89
68107;BME280;54892;47.488;19.026;2024-01-11T11:47:23;100757.31;;;1.41;51.92
68107;BME280;54892;47.488;19.026;2024-01-11T11:50:46;100768.03;;;1.46;53.00
68107;BME280;54892;47.488;19.026;2024-01-11T11:54:09;100766.50;;;1.51;51.04
68107;BME280;54892;47.488;19.026;2024-01-11T11:57:33;100768.31;;;1.51;50.70
68107;BME280;54892;47.488;19.026;2024-01-11T12:00:58;100764.00;;;1.58;52.02
68107;BME280;54892;47.488;19.026;2024-01-11T12:04:24;100747.16;;;1.69;50.37
68107;BME280;54892;47.488;19.026;2024-01-11T12:07:47;100745.37;;;1.70;51.36
68107;BME280;54892;47.488;19.026;2024-01-11T12:11:13;100734.97;;;1.70;51.73
68107;BME280;54892;47.488;19.026;2024-01-11T12:14:36;100727.72;;;1.80;51.62
68107;BME280;54892;47.488;19.026;2024-01-11T12:17:59;100725.66;;;1.75;51.90
68107;BME280;54892;47.488;19.026;2024-01-11T12:21:25;100725.66;;;1.75;52.42
68107;BME280;54892;47.488;19.026;2024-01-11T12:24:48;100717.66;;;1.77;52.61
68107;BME280;54892;47.488;19.026;2024-01-11T12:28:12;100715.03;;;1.77;52.67
68107;BME280;54892;47.488;19.026;2024-01-11T12:31:35;100720.09;;;1.78;53.19
68107;BME280;54892;47.488;19.026;2024-01-11T12:34:58;100706.06;;;1.94;51.41
68107;BME280;54892;47.488;19.026;2024-01-11T12:38:23;100712.97;;;1.87;52.02
68107;BME280;54892;47.488;19.026;2024-01-11T12:41:46;100720.72;;;1.95;51.76
68107;BME280;54892;47.488;19.026;2024-01-11T12:45:09;100706.50;;;1.98;51.54
68107;BME280;54892;47.488;19.026;2024-01-11T12:48:32;100712.97;;;2.02;52.17
68107;BME280;54892;47.488;19.026;2024-01-11T12:51:55;100708.31;;;1.97;52.69
68107;BME280;54892;47.488;19.026;2024-01-11T12:55:20;100708.28;;;2.12;52.62
68107;BME280;54892;47.488;19.026;2024-01-11T12:58:43;100704.47;;;2.08;53.35
68107;BME280;54892;47.488;19.026;2024-01-11T13:02:08;100704.38;;;2.02;53.07
68107;BME280;54892;47.488;19.026;2024-01-11T13:05:31;100695.19;;;2.06;52.97
68107;BME280;54892;47.488;19.026;2024-01-11T13:08:56;100690.00;;;1.91;53.56
68107;BME280;54892;47.488;19.026;2024-01-11T13:12:21;100681.28;;;1.83;54.42
68107;BME280;54892;47.488;19.026;2024-01-11T13:15:44;100664.69;;;1.85;54.28
68107;BME280;54892;47.488;19.026;2024-01-11T13:19:08;100663.97;;;1.91;54.12
68107;BME280;54892;47.488;19.026;2024-01-11T13:22:34;100646.63;;;2.13;52.68
68107;BME280;54892;47.488;19.026;2024-01-11T13:25:57;100640.34;;;1.92;53.72
68107;BME280;54892;47.488;19.026;2024-01-11T13:29:21;100648.44;;;1.97;53.83
68107;BME280;54892;47.488;19.026;2024-01-11T13:32:44;100630.72;;;2.08;53.21
68107;BME280;54892;47.488;19.026;2024-01-11T13:36:08;100626.03;;;2.18;53.46
68107;BME280;54892;47.488;19.026;2024-01-11T13:39:31;100635.84;;;2.16;52.15
68107;BME280;54892;47.488;19.026;2024-01-11T13:42:54;100639.78;;;2.12;52.31
68107;BME280;54892;47.488;19.026;2024-01-11T13:46:19;100631.75;;;2.28;50.65
68107;BME280;54892;47.488;19.026;2024-01-11T13:49:42;100620.22;;;2.16;47.16
68107;BME280;54892;47.488;19.026;2024-01-11T13:53:05;100625.53;;;2.08;47.64
68107;BME280;54892;47.488;19.026;2024-01-11T13:56:28;100611.09;;;2.05;49.24
68107;BME280;54892;47.488;19.026;2024-01-11T13:59:51;100607.50;;;1.91;48.89
68107;BME280;54892;47.488;19.026;2024-01-11T14:03:15;100604.53;;;1.94;49.04
68107;BME280;54892;47.488;19.026;2024-01-11T14:06:39;100578.53;;;1.79;50.57
68107;BME280;54892;47.488;19.026;2024-01-11T14:10:02;100578.34;;;1.81;50.92
68107;BME280;54892;47.488;19.026;2024-01-11T14:13:25;100573.31;;;1.94;51.31
68107;BME280;54892;47.488;19.026;2024-01-11T14:16:48;100561.06;;;1.58;51.74
68107;BME280;54892;47.488;19.026;2024-01-11T14:20:14;100549.78;;;1.51;53.53
68107;BME280;54892;47.488;19.026;2024-01-11T14:23:37;100524.84;;;1.42;55.50
68107;BME280;54892;47.488;19.026;2024-01-11T14:27:00;100521.38;;;1.34;56.54
68107;BME280;54892;47.488;19.026;2024-01-11T14:30:23;100523.59;;;1.37;56.45
68107;BME280;54892;47.488;19.026;2024-01-11T14:33:46;100535.72;;;1.15;57.22
68107;BME280;54892;47.488;19.026;2024-01-11T14:37:11;100526.81;;;1.10;57.42
68107;BME280;54892;47.488;19.026;2024-01-11T14:40:34;100529.53;;;1.01;56.83
68107;BME280;54892;47.488;19.026;2024-01-11T14:43:58;100532.75;;;1.03;56.95
68107;BME280;54892;47.488;19.026;2024-01-11T14:47:22;100543.78;;;1.05;55.12
68107;BME280;54892;47.488;19.026;2024-01-11T14:50:45;100547.81;;;0.93;55.09
68107;BME280;54892;47.488;19.026;2024-01-11T14:54:09;100540.66;;;1.10;55.03
68107;BME280;54892;47.488;19.026;2024-01-11T14:57:32;100541.00;;;0.92;55.02
68107;BME280;54892;47.488;19.026;2024-01-11T15:00:56;100534.69;;;0.86;54.21
68107;BME280;54892;47.488;19.026;2024-01-11T15:04:19;100529.72;;;1.00;55.04
68107;BME280;54892;47.488;19.026;2024-01-11T15:07:43;100533.91;;;0.86;55.53
68107;BME280;54892;47.488;19.026;2024-01-11T15:11:08;100534.59;;;0.80;54.82
68107;BME280;54892;47.488;19.026;2024-01-11T15:14:31;100516.25;;;0.81;55.23
68107;BME280;54892;47.488;19.026;2024-01-11T15:17:54;100514.72;;;0.87;55.81
68107;BME280;54892;47.488;19.026;2024-01-11T15:21:17;100501.44;;;0.82;56.60
68107;BME280;54892;47.488;19.026;2024-01-11T15:24:40;100514.19;;;0.77;57.68
68107;BME280;54892;47.488;19.026;2024-01-11T15:28:05;100525.72;;;0.74;58.11
68107;BME280;54892;47.488;19.026;2024-01-11T15:31:28;100519.16;;;0.63;59.08
68107;BME280;54892;47.488;19.026;2024-01-11T15:34:52;100525.41;;;0.54;59.62
68107;BME280;54892;47.488;19.026;2024-01-11T15:38:15;100531.59;;;0.53;60.20
68107;BME280;54892;47.488;19.026;2024-01-11T15:41:39;100523.47;;;0.56;60.65
68107;BME280;54892;47.488;19.026;2024-01-11T15:45:06;100515.03;;;0.54;60.15
68107;BME280;54892;47.488;19.026;2024-01-11T15:48:29;100494.78;;;0.64;58.28
68107;BME280;54892;47.488;19.026;2024-01-11T15:51:52;100491.22;;;0.65;53.17
68107;BME280;54892;47.488;19.026;2024-01-11T15:55:15;100505.91;;;0.73;52.58
68107;BME280;54892;47.488;19.026;2024-01-11T15:58:38;100502.44;;;0.81;52.52
68107;BME280;54892;47.488;19.026;2024-01-11T16:02:03;100498.22;;;0.80;53.66
68107;BME280;54892;47.488;19.026;2024-01-11T16:05:27;100501.78;;;0.79;55.66
68107;BME280;54892;47.488;19.026;2024-01-11T16:08:50;100509.06;;;0.68;54.65
68107;BME280;54892;47.488;19.026;2024-01-11T16:12:13;100527.78;;;0.79;55.15
68107;BME280;54892;47.488;19.026;2024-01-11T16:15:36;100523.28;;;0.57;51.75
68107;BME280;54892;47.488;19.026;2024-01-11T16:19:00;100511.91;;;0.58;51.47
68107;BME280;54892;47.488;19.026;2024-01-11T16:22:24;100501.16;;;0.62;52.05
68107;BME280;54892;47.488;19.026;2024-01-11T16:25:47;100493.12;;;0.71;52.24
68107;BME280;54892;47.488;19.026;2024-01-11T16:29:10;100481.00;;;0.64;52.53
68107;BME280;54892;47.488;19.026;2024-01-11T16:32:33;100482.53;;;0.58;53.03
68107;BME280;54892;47.488;19.026;2024-01-11T16:35:58;100477.59;;;0.63;52.94
68107;BME280;54892;47.488;19.026;2024-01-11T16:39:21;100469.28;;;0.68;53.18
68107;BME280;54892;47.488;19.026;2024-01-11T16:42:44;100458.44;;;0.64;53.79
68107;BME280;54892;47.488;19.026;2024-01-11T16:46:07;100464.16;;;0.59;54.75
68107;BME280;54892;47.488;19.026;2024-01-11T16:49:30;100467.56;;;0.60;55.24
68107;BME280;54892;47.488;19.026;2024-01-11T16:52:54;100461.91;;;0.56;55.54
68107;BME280;54892;47.488;19.026;2024-01-11T16:56:18;100450.72;;;0.56;55.97
68107;BME280;54892;47.488;19.026;2024-01-11T16:59:41;100457.09;;;0.53;56.56
68107;BME280;54892;47.488;19.026;2024-01-11T17:03:04;100452.16;;;0.58;56.60
68107;BME280;54892;47.488;19.026;2024-01-11T17:06:28;100442.56;;;0.44;57.43
68107;BME280;54892;47.488;19.026;2024-01-11T17:09:53;100433.00;;;0.44;57.77
68107;BME280;54892;47.488;19.026;2024-01-11T17:13:16;100432.41;;;0.34;58.61
68107;BME280;54892;47.488;19.026;2024-01-11T17:16:39;100427.59;;;0.31;58.99
68107;BME280;54892;47.488;19.026;2024-01-11T17:20:02;100417.72;;;0.26;58.63
68107;BME280;54892;47.488;19.026;2024-01-11T17:23:25;100421.47;;;0.24;58.64
68107;BME280;54892;47.488;19.026;2024-01-11T17:26:50;100416.63;;;0.21;58.59
68107;BME280;54892;47.488;19.026;2024-01-11T17:30:13;100421.78;;;0.29;58.54
68107;BME280;54892;47.488;19.026;2024-01-11T17:33:36;100421.81;;;0.21;58.93
68107;BME280;54892;47.488;19.026;2024-01-11T17:36:59;100422.81;;;0.20;58.82
68107;BME280;54892;47.488;19.026;2024-01-11T17:40:23;100423.34;;;0.15;58.90